sensor_id;sensor_type;location;lat;lon;timestamp;P1;durP1;ratioP1;P2;durP2;ratioP2
5416;SDS011;2731;50.754;12.990;2022-08-19T00:00:26;37.65;;;30.08;;
5416;SDS011;2731;50.754;12.990;2022-08-19T00:02:52;35.55;;;28.83;;
5416;SDS011;2731;50.754;12.990;2022-08-19T00:05:18;35.88;;;29.80;;
5416;SDS011;2731;50.754;12.990;2022-08-19T00:07:44;36.80;;;29.35;;
5416;SDS011;2731;50.754;12.990;2022-08-19T00:10:12;36.65;;;28.63;;
5416;SDS011;2731;50.754;12.990;2022-08-19T00:12:41;37.40;;;30.25;;
5416;SDS011;2731;50.754;12.990;2022-08-19T00:15:08;32.58;;;26.38;;
5416;SDS011;2731;50.754;12.990;2022-08-19T00:17:39;32.78;;;26.25;;
5416;SDS011;2731;50.754;12.990;2022-08-19T00:20:05;38.55;;;30.55;;
5416;SDS011;2731;50.754;12.990;2022-08-19T00:22:32;35.00;;;28.63;;
5416;SDS011;2731;50.754;12.990;2022-08-19T00:24:58;31.98;;;25.58;;
5416;SDS011;2731;50.754;12.990;2022-08-19T00:27:24;33.10;;;26.52;;
5416;SDS011;2731;50.754;12.990;2022-08-19T00:29:49;34.00;;;26.60;;
5416;SDS011;2731;50.754;12.990;2022-08-19T00:32:15;33.25;;;27.65;;
5416;SDS011;2731;50.754;12.990;2022-08-19T00:34:41;31.75;;;26.45;;
5416;SDS011;2731;50.754;12.990;2022-08-19T00:37:06;34.88;;;27.17;;
5416;SDS011;2731;50.754;12.990;2022-08-19T00:39:31;30.52;;;26.58;;
5416;SDS011;2731;50.754;12.990;2022-08-19T00:41:57;31.48;;;26.85;;
5416;SDS011;2731;50.754;12.990;2022-08-19T00:44:25;30.63;;;25.67;;
5416;SDS011;2731;50.754;12.990;2022-08-19T00:46:52;27.77;;;23.88;;
5416;SDS011;2731;50.754;12.990;2022-08-19T00:51:55;32.45;;;24.95;;
5416;SDS011;2731;50.754;12.990;2022-08-19T00:54:24;29.75;;;25.25;;
5416;SDS011;2731;50.754;12.990;2022-08-19T00:56:50;27.92;;;23.13;;
5416;SDS011;2731;50.754;12.990;2022-08-19T00:59:15;27.48;;;22.98;;
5416;SDS011;2731;50.754;12.990;2022-08-19T01:01:42;27.38;;;22.67;;
5416;SDS011;2731;50.754;12.990;2022-08-19T01:04:08;26.55;;;23.42;;
5416;SDS011;2731;50.754;12.990;2022-08-19T01:06:35;26.45;;;22.88;;
5416;SDS011;2731;50.754;12.990;2022-08-19T01:09:00;30.58;;;23.70;;
5416;SDS011;2731;50.754;12.990;2022-08-19T01:11:34;26.88;;;22.60;;
5416;SDS011;2731;50.754;12.990;2022-08-19T01:14:01;29.60;;;23.50;;
5416;SDS011;2731;50.754;12.990;2022-08-19T01:16:27;28.98;;;23.40;;
5416;SDS011;2731;50.754;12.990;2022-08-19T01:18:54;28.10;;;23.88;;
5416;SDS011;2731;50.754;12.990;2022-08-19T01:21:26;26.27;;;22.58;;
5416;SDS011;2731;50.754;12.990;2022-08-19T01:23:54;28.00;;;23.90;;
5416;SDS011;2731;50.754;12.990;2022-08-19T01:26:21;26.58;;;23.30;;
5416;SDS011;2731;50.754;12.990;2022-08-19T01:28:50;28.27;;;23.88;;
5416;SDS011;2731;50.754;12.990;2022-08-19T01:31:21;28.25;;;23.73;;
5416;SDS011;2731;50.754;12.990;2022-08-19T01:33:49;27.38;;;23.60;;
5416;SDS011;2731;50.754;12.990;2022-08-19T01:36:16;26.73;;;22.45;;
5416;SDS011;2731;50.754;12.990;2022-08-19T01:38:51;27.48;;;23.65;;
5416;SDS011;2731;50.754;12.990;2022-08-19T01:41:18;30.73;;;23.00;;
5416;SDS011;2731;50.754;12.990;2022-08-19T01:43:45;32.03;;;22.58;;
5416;SDS011;2731;50.754;12.990;2022-08-19T01:46:11;28.08;;;24.25;;
5416;SDS011;2731;50.754;12.990;2022-08-19T01:48:39;30.80;;;24.52;;
5416;SDS011;2731;50.754;12.990;2022-08-19T01:51:08;27.83;;;22.48;;
5416;SDS011;2731;50.754;12.990;2022-08-19T01:53:34;26.58;;;21.58;;
5416;SDS011;2731;50.754;12.990;2022-08-19T01:56:05;26.30;;;22.55;;
5416;SDS011;2731;50.754;12.990;2022-08-19T01:58:36;29.65;;;24.63;;
5416;SDS011;2731;50.754;12.990;2022-08-19T02:01:04;26.45;;;22.00;;
5416;SDS011;2731;50.754;12.990;2022-08-19T02:03:32;26.33;;;22.65;;
5416;SDS011;2731;50.754;12.990;2022-08-19T02:06:00;25.83;;;22.08;;
5416;SDS011;2731;50.754;12.990;2022-08-19T02:08:27;26.77;;;21.70;;
5416;SDS011;2731;50.754;12.990;2022-08-19T02:10:54;27.48;;;22.42;;
5416;SDS011;2731;50.754;12.990;2022-08-19T02:13:20;28.15;;;21.23;;
5416;SDS011;2731;50.754;12.990;2022-08-19T02:15:46;25.80;;;21.30;;
5416;SDS011;2731;50.754;12.990;2022-08-19T02:18:12;23.13;;;19.83;;
5416;SDS011;2731;50.754;12.990;2022-08-19T02:20:37;25.42;;;21.60;;
5416;SDS011;2731;50.754;12.990;2022-08-19T02:23:04;26.08;;;20.02;;
5416;SDS011;2731;50.754;12.990;2022-08-19T02:25:33;24.65;;;21.10;;
5416;SDS011;2731;50.754;12.990;2022-08-19T02:27:58;24.48;;;21.58;;
5416;SDS011;2731;50.754;12.990;2022-08-19T02:30:24;25.42;;;20.80;;
5416;SDS011;2731;50.754;12.990;2022-08-19T02:32:51;21.60;;;18.60;;
5416;SDS011;2731;50.754;12.990;2022-08-19T02:35:17;26.88;;;21.55;;
5416;SDS011;2731;50.754;12.990;2022-08-19T02:37:42;25.88;;;21.15;;
5416;SDS011;2731;50.754;12.990;2022-08-19T02:40:30;24.77;;;21.75;;
5416;SDS011;2731;50.754;12.990;2022-08-19T02:43:17;24.15;;;20.02;;
5416;SDS011;2731;50.754;12.990;2022-08-19T02:45:48;22.55;;;19.40;;
5416;SDS011;2731;50.754;12.990;2022-08-19T02:48:15;21.70;;;17.45;;
5416;SDS011;2731;50.754;12.990;2022-08-19T02:50:43;23.05;;;19.67;;
5416;SDS011;2731;50.754;12.990;2022-08-19T02:53:09;24.67;;;20.50;;
5416;SDS011;2731;50.754;12.990;2022-08-19T02:55:35;22.77;;;18.83;;
5416;SDS011;2731;50.754;12.990;2022-08-19T02:58:00;23.45;;;20.17;;
5416;SDS011;2731;50.754;12.990;2022-08-19T03:00:26;22.42;;;19.88;;
5416;SDS011;2731;50.754;12.990;2022-08-19T03:02:52;25.33;;;19.98;;
5416;SDS011;2731;50.754;12.990;2022-08-19T03:05:20;22.25;;;19.35;;
5416;SDS011;2731;50.754;12.990;2022-08-19T03:07:46;25.70;;;21.33;;
5416;SDS011;2731;50.754;12.990;2022-08-19T03:10:11;24.85;;;20.38;;
5416;SDS011;2731;50.754;12.990;2022-08-19T03:12:37;24.52;;;20.45;;
5416;SDS011;2731;50.754;12.990;2022-08-19T03:15:07;28.48;;;21.02;;
5416;SDS011;2731;50.754;12.990;2022-08-19T03:17:33;23.98;;;20.10;;
5416;SDS011;2731;50.754;12.990;2022-08-19T03:19:59;28.58;;;22.13;;
5416;SDS011;2731;50.754;12.990;2022-08-19T03:22:28;26.00;;;21.05;;
5416;SDS011;2731;50.754;12.990;2022-08-19T03:24:56;24.75;;;20.77;;
5416;SDS011;2731;50.754;12.990;2022-08-19T03:27:21;26.92;;;22.02;;
5416;SDS011;2731;50.754;12.990;2022-08-19T03:29:47;24.67;;;21.98;;
5416;SDS011;2731;50.754;12.990;2022-08-19T03:32:12;28.05;;;21.48;;
5416;SDS011;2731;50.754;12.990;2022-08-19T03:34:38;28.02;;;22.45;;
5416;SDS011;2731;50.754;12.990;2022-08-19T03:37:07;29.45;;;24.15;;
5416;SDS011;2731;50.754;12.990;2022-08-19T03:39:35;26.08;;;22.10;;
5416;SDS011;2731;50.754;12.990;2022-08-19T03:42:03;29.17;;;21.15;;
5416;SDS011;2731;50.754;12.990;2022-08-19T03:44:30;26.35;;;21.65;;
5416;SDS011;2731;50.754;12.990;2022-08-19T03:46:59;24.40;;;21.08;;
5416;SDS011;2731;50.754;12.990;2022-08-19T03:49:27;26.35;;;21.83;;
5416;SDS011;2731;50.754;12.990;2022-08-19T03:51:54;28.27;;;22.80;;
5416;SDS011;2731;50.754;12.990;2022-08-19T03:54:22;26.63;;;21.13;;
5416;SDS011;2731;50.754;12.990;2022-08-19T03:56:49;26.30;;;22.23;;
5416;SDS011;2731;50.754;12.990;2022-08-19T03:59:18;26.08;;;21.80;;
5416;SDS011;2731;50.754;12.990;2022-08-19T04:01:50;27.17;;;22.95;;
5416;SDS011;2731;50.754;12.990;2022-08-19T04:04:15;27.90;;;21.33;;
5416;SDS011;2731;50.754;12.990;2022-08-19T04:06:43;26.23;;;21.75;;
5416;SDS011;2731;50.754;12.990;2022-08-19T04:09:14;26.30;;;20.90;;
5416;SDS011;2731;50.754;12.990;2022-08-19T04:11:41;26.42;;;21.92;;
5416;SDS011;2731;50.754;12.990;2022-08-19T04:16:39;29.73;;;21.65;;
5416;SDS011;2731;50.754;12.990;2022-08-19T04:19:05;27.40;;;21.50;;
5416;SDS011;2731;50.754;12.990;2022-08-19T04:21:32;24.08;;;20.42;;
5416;SDS011;2731;50.754;12.990;2022-08-19T04:23:58;25.73;;;20.80;;
5416;SDS011;2731;50.754;12.990;2022-08-19T04:26:25;23.00;;;19.88;;
5416;SDS011;2731;50.754;12.990;2022-08-19T04:28:52;22.63;;;18.48;;
5416;SDS011;2731;50.754;12.990;2022-08-19T04:31:20;21.58;;;17.70;;
5416;SDS011;2731;50.754;12.990;2022-08-19T04:33:47;23.27;;;18.83;;
5416;SDS011;2731;50.754;12.990;2022-08-19T04:36:18;23.48;;;18.63;;
5416;SDS011;2731;50.754;12.990;2022-08-19T04:38:49;26.83;;;20.38;;
5416;SDS011;2731;50.754;12.990;2022-08-19T04:41:15;31.25;;;22.40;;
5416;SDS011;2731;50.754;12.990;2022-08-19T04:43:59;30.30;;;22.25;;
5416;SDS011;2731;50.754;12.990;2022-08-19T04:46:27;27.27;;;20.90;;
5416;SDS011;2731;50.754;12.990;2022-08-19T04:48:54;27.10;;;21.48;;
5416;SDS011;2731;50.754;12.990;2022-08-19T04:51:21;25.75;;;20.83;;
5416;SDS011;2731;50.754;12.990;2022-08-19T04:53:47;29.95;;;22.40;;
5416;SDS011;2731;50.754;12.990;2022-08-19T04:56:14;27.27;;;20.92;;
5416;SDS011;2731;50.754;12.990;2022-08-19T04:58:41;26.70;;;20.58;;
5416;SDS011;2731;50.754;12.990;2022-08-19T05:01:17;28.52;;;21.45;;
5416;SDS011;2731;50.754;12.990;2022-08-19T05:03:45;27.73;;;19.60;;
5416;SDS011;2731;50.754;12.990;2022-08-19T05:06:12;26.40;;;20.05;;
5416;SDS011;2731;50.754;12.990;2022-08-19T05:08:39;24.83;;;18.13;;
5416;SDS011;2731;50.754;12.990;2022-08-19T05:11:10;21.02;;;16.00;;
5416;SDS011;2731;50.754;12.990;2022-08-19T05:13:57;21.77;;;16.08;;
5416;SDS011;2731;50.754;12.990;2022-08-19T05:16:23;21.40;;;16.50;;
5416;SDS011;2731;50.754;12.990;2022-08-19T05:18:49;20.95;;;15.55;;
5416;SDS011;2731;50.754;12.990;2022-08-19T05:21:33;19.50;;;16.02;;
5416;SDS011;2731;50.754;12.990;2022-08-19T05:24:18;19.90;;;15.35;;
5416;SDS011;2731;50.754;12.990;2022-08-19T05:26:45;18.40;;;14.45;;
5416;SDS011;2731;50.754;12.990;2022-08-19T05:29:12;16.25;;;14.43;;
5416;SDS011;2731;50.754;12.990;2022-08-19T05:31:39;21.08;;;15.63;;
5416;SDS011;2731;50.754;12.990;2022-08-19T05:34:05;21.80;;;15.65;;
5416;SDS011;2731;50.754;12.990;2022-08-19T05:36:35;24.13;;;17.70;;
5416;SDS011;2731;50.754;12.990;2022-08-19T05:39:10;21.40;;;16.20;;
5416;SDS011;2731;50.754;12.990;2022-08-19T05:41:41;21.98;;;16.05;;
5416;SDS011;2731;50.754;12.990;2022-08-19T05:44:07;20.75;;;15.63;;
5416;SDS011;2731;50.754;12.990;2022-08-19T05:46:34;20.17;;;15.73;;
5416;SDS011;2731;50.754;12.990;2022-08-19T05:49:01;20.25;;;15.93;;
5416;SDS011;2731;50.754;12.990;2022-08-19T05:51:26;22.77;;;15.82;;
5416;SDS011;2731;50.754;12.990;2022-08-19T05:53:53;20.15;;;15.20;;
5416;SDS011;2731;50.754;12.990;2022-08-19T05:56:18;20.30;;;14.52;;
5416;SDS011;2731;50.754;12.990;2022-08-19T05:58:45;21.10;;;14.65;;
5416;SDS011;2731;50.754;12.990;2022-08-19T06:01:17;16.80;;;13.25;;
5416;SDS011;2731;50.754;12.990;2022-08-19T06:03:43;19.85;;;14.75;;
5416;SDS011;2731;50.754;12.990;2022-08-19T06:06:09;20.35;;;14.93;;
5416;SDS011;2731;50.754;12.990;2022-08-19T06:08:36;21.25;;;16.23;;
5416;SDS011;2731;50.754;12.990;2022-08-19T06:11:23;22.20;;;15.15;;
5416;SDS011;2731;50.754;12.990;2022-08-19T06:13:57;23.35;;;16.15;;
5416;SDS011;2731;50.754;12.990;2022-08-19T06:16:26;27.75;;;17.98;;
5416;SDS011;2731;50.754;12.990;2022-08-19T06:18:54;31.80;;;21.75;;
5416;SDS011;2731;50.754;12.990;2022-08-19T06:21:30;36.67;;;21.48;;
5416;SDS011;2731;50.754;12.990;2022-08-19T06:23:56;34.05;;;22.63;;
5416;SDS011;2731;50.754;12.990;2022-08-19T06:26:22;32.85;;;21.15;;
5416;SDS011;2731;50.754;12.990;2022-08-19T06:28:49;30.65;;;21.40;;
5416;SDS011;2731;50.754;12.990;2022-08-19T06:31:16;31.73;;;21.35;;
5416;SDS011;2731;50.754;12.990;2022-08-19T06:33:45;32.22;;;22.10;;
5416;SDS011;2731;50.754;12.990;2022-08-19T06:36:20;30.02;;;21.67;;
5416;SDS011;2731;50.754;12.990;2022-08-19T06:41:18;41.20;;;24.65;;
5416;SDS011;2731;50.754;12.990;2022-08-19T06:43:44;36.38;;;23.80;;
5416;SDS011;2731;50.754;12.990;2022-08-19T06:46:11;37.45;;;22.65;;
5416;SDS011;2731;50.754;12.990;2022-08-19T06:48:40;33.30;;;21.35;;
5416;SDS011;2731;50.754;12.990;2022-08-19T06:51:07;34.67;;;22.65;;
5416;SDS011;2731;50.754;12.990;2022-08-19T06:53:33;36.65;;;23.25;;
5416;SDS011;2731;50.754;12.990;2022-08-19T06:55:58;37.13;;;23.15;;
5416;SDS011;2731;50.754;12.990;2022-08-19T06:58:27;33.90;;;21.77;;
5416;SDS011;2731;50.754;12.990;2022-08-19T07:00:57;35.92;;;22.05;;
5416;SDS011;2731;50.754;12.990;2022-08-19T07:03:26;39.17;;;23.17;;
5416;SDS011;2731;50.754;12.990;2022-08-19T07:05:53;33.80;;;22.70;;
5416;SDS011;2731;50.754;12.990;2022-08-19T07:08:19;33.67;;;20.98;;
5416;SDS011;2731;50.754;12.990;2022-08-19T07:10:44;38.55;;;23.90;;
5416;SDS011;2731;50.754;12.990;2022-08-19T07:13:12;41.40;;;25.60;;
5416;SDS011;2731;50.754;12.990;2022-08-19T07:15:37;41.63;;;25.40;;
5416;SDS011;2731;50.754;12.990;2022-08-19T07:18:02;42.08;;;25.38;;
5416;SDS011;2731;50.754;12.990;2022-08-19T07:20:29;42.28;;;25.77;;
5416;SDS011;2731;50.754;12.990;2022-08-19T07:22:54;42.70;;;25.33;;
5416;SDS011;2731;50.754;12.990;2022-08-19T07:25:20;49.75;;;28.05;;
5416;SDS011;2731;50.754;12.990;2022-08-19T07:27:45;42.60;;;26.05;;
5416;SDS011;2731;50.754;12.990;2022-08-19T07:30:13;49.88;;;28.23;;
5416;SDS011;2731;50.754;12.990;2022-08-19T07:32:39;40.85;;;25.38;;
5416;SDS011;2731;50.754;12.990;2022-08-19T07:35:05;47.80;;;27.30;;
5416;SDS011;2731;50.754;12.990;2022-08-19T07:37:31;43.83;;;25.90;;
5416;SDS011;2731;50.754;12.990;2022-08-19T07:39:58;42.88;;;26.50;;
5416;SDS011;2731;50.754;12.990;2022-08-19T07:42:23;40.22;;;26.20;;
5416;SDS011;2731;50.754;12.990;2022-08-19T07:44:49;38.97;;;26.55;;
5416;SDS011;2731;50.754;12.990;2022-08-19T07:47:14;44.60;;;27.42;;
5416;SDS011;2731;50.754;12.990;2022-08-19T07:49:40;45.15;;;27.52;;
5416;SDS011;2731;50.754;12.990;2022-08-19T07:52:08;40.60;;;24.15;;
5416;SDS011;2731;50.754;12.990;2022-08-19T07:54:34;37.70;;;23.27;;
5416;SDS011;2731;50.754;12.990;2022-08-19T07:57:02;45.20;;;26.77;;
5416;SDS011;2731;50.754;12.990;2022-08-19T07:59:28;35.50;;;23.50;;
5416;SDS011;2731;50.754;12.990;2022-08-19T08:01:53;36.67;;;22.95;;
5416;SDS011;2731;50.754;12.990;2022-08-19T08:04:19;33.10;;;21.63;;
5416;SDS011;2731;50.754;12.990;2022-08-19T08:07:05;31.10;;;21.55;;
5416;SDS011;2731;50.754;12.990;2022-08-19T08:09:51;28.08;;;19.67;;
5416;SDS011;2731;50.754;12.990;2022-08-19T08:12:20;32.08;;;21.75;;
5416;SDS011;2731;50.754;12.990;2022-08-19T08:14:55;27.17;;;17.88;;
5416;SDS011;2731;50.754;12.990;2022-08-19T08:17:26;24.92;;;17.25;;
5416;SDS011;2731;50.754;12.990;2022-08-19T08:19:52;23.70;;;17.08;;
5416;SDS011;2731;50.754;12.990;2022-08-19T08:22:19;23.33;;;16.48;;
5416;SDS011;2731;50.754;12.990;2022-08-19T08:25:18;26.73;;;20.27;;
5416;SDS011;2731;50.754;12.990;2022-08-19T08:27:46;33.42;;;22.08;;
5416;SDS011;2731;50.754;12.990;2022-08-19T08:30:19;30.73;;;23.00;;
5416;SDS011;2731;50.754;12.990;2022-08-19T08:32:45;36.78;;;25.42;;
5416;SDS011;2731;50.754;12.990;2022-08-19T08:35:15;43.90;;;29.63;;
5416;SDS011;2731;50.754;12.990;2022-08-19T08:37:42;37.03;;;26.30;;
5416;SDS011;2731;50.754;12.990;2022-08-19T08:40:56;37.45;;;26.13;;
5416;SDS011;2731;50.754;12.990;2022-08-19T08:43:37;34.53;;;26.13;;
5416;SDS011;2731;50.754;12.990;2022-08-19T08:45:44;33.97;;;24.52;;
5416;SDS011;2731;50.754;12.990;2022-08-19T08:48:18;38.80;;;24.88;;
5416;SDS011;2731;50.754;12.990;2022-08-19T08:50:50;30.27;;;23.92;;
5416;SDS011;2731;50.754;12.990;2022-08-19T08:53:17;32.28;;;23.85;;
5416;SDS011;2731;50.754;12.990;2022-08-19T08:55:43;36.67;;;24.42;;
5416;SDS011;2731;50.754;12.990;2022-08-19T08:58:11;34.17;;;23.75;;
5416;SDS011;2731;50.754;12.990;2022-08-19T09:00:42;33.08;;;25.05;;
5416;SDS011;2731;50.754;12.990;2022-08-19T09:03:16;36.38;;;25.20;;
5416;SDS011;2731;50.754;12.990;2022-08-19T09:11:04;35.50;;;25.90;;
5416;SDS011;2731;50.754;12.990;2022-08-19T09:16:28;35.20;;;26.42;;
5416;SDS011;2731;50.754;12.990;2022-08-19T09:19:05;35.85;;;27.45;;
5416;SDS011;2731;50.754;12.990;2022-08-19T09:21:42;37.22;;;27.73;;
5416;SDS011;2731;50.754;12.990;2022-08-19T09:24:08;38.90;;;27.52;;
5416;SDS011;2731;50.754;12.990;2022-08-19T09:26:33;39.78;;;29.73;;
5416;SDS011;2731;50.754;12.990;2022-08-19T09:28:59;38.80;;;30.05;;
5416;SDS011;2731;50.754;12.990;2022-08-19T09:31:27;39.83;;;28.27;;
5416;SDS011;2731;50.754;12.990;2022-08-19T09:33:54;40.88;;;29.88;;
5416;SDS011;2731;50.754;12.990;2022-08-19T09:36:22;40.72;;;29.35;;
5416;SDS011;2731;50.754;12.990;2022-08-19T09:38:50;39.88;;;29.75;;
5416;SDS011;2731;50.754;12.990;2022-08-19T09:41:17;39.60;;;29.55;;
5416;SDS011;2731;50.754;12.990;2022-08-19T09:43:45;44.88;;;31.65;;
5416;SDS011;2731;50.754;12.990;2022-08-19T09:46:14;46.88;;;33.58;;
5416;SDS011;2731;50.754;12.990;2022-08-19T09:48:43;42.90;;;31.77;;
5416;SDS011;2731;50.754;12.990;2022-08-19T09:51:12;41.05;;;30.77;;
5416;SDS011;2731;50.754;12.990;2022-08-19T09:53:41;47.42;;;32.65;;
5416;SDS011;2731;50.754;12.990;2022-08-19T09:56:08;47.05;;;34.60;;
5416;SDS011;2731;50.754;12.990;2022-08-19T09:58:37;51.47;;;36.50;;
5416;SDS011;2731;50.754;12.990;2022-08-19T10:01:04;44.42;;;33.13;;
5416;SDS011;2731;50.754;12.990;2022-08-19T10:03:31;49.50;;;36.78;;
5416;SDS011;2731;50.754;12.990;2022-08-19T10:05:58;48.15;;;37.22;;
5416;SDS011;2731;50.754;12.990;2022-08-19T10:08:26;52.45;;;38.65;;
5416;SDS011;2731;50.754;12.990;2022-08-19T10:10:54;51.85;;;37.53;;
5416;SDS011;2731;50.754;12.990;2022-08-19T10:13:29;54.50;;;38.45;;
5416;SDS011;2731;50.754;12.990;2022-08-19T10:16:06;43.33;;;31.92;;
5416;SDS011;2731;50.754;12.990;2022-08-19T10:18:33;47.20;;;34.47;;
5416;SDS011;2731;50.754;12.990;2022-08-19T10:21:04;54.20;;;34.85;;
5416;SDS011;2731;50.754;12.990;2022-08-19T10:23:35;46.22;;;33.53;;
5416;SDS011;2731;50.754;12.990;2022-08-19T10:26:02;45.05;;;33.28;;
5416;SDS011;2731;50.754;12.990;2022-08-19T10:28:31;44.53;;;32.22;;
5416;SDS011;2731;50.754;12.990;2022-08-19T10:31:05;46.67;;;33.47;;
5416;SDS011;2731;50.754;12.990;2022-08-19T10:33:51;46.30;;;34.55;;
5416;SDS011;2731;50.754;12.990;2022-08-19T10:36:22;39.58;;;31.05;;
5416;SDS011;2731;50.754;12.990;2022-08-19T10:38:52;44.60;;;32.28;;
5416;SDS011;2731;50.754;12.990;2022-08-19T10:41:21;52.28;;;33.17;;
5416;SDS011;2731;50.754;12.990;2022-08-19T10:43:55;42.97;;;31.30;;
5416;SDS011;2731;50.754;12.990;2022-08-19T10:46:26;43.00;;;30.80;;
5416;SDS011;2731;50.754;12.990;2022-08-19T10:48:53;43.60;;;30.50;;
5416;SDS011;2731;50.754;12.990;2022-08-19T10:51:19;43.85;;;30.92;;
5416;SDS011;2731;50.754;12.990;2022-08-19T10:54:03;51.53;;;34.88;;
5416;SDS011;2731;50.754;12.990;2022-08-19T10:56:29;55.38;;;36.90;;
5416;SDS011;2731;50.754;12.990;2022-08-19T10:59:15;56.58;;;36.67;;
5416;SDS011;2731;50.754;12.990;2022-08-19T11:01:43;59.47;;;39.20;;
5416;SDS011;2731;50.754;12.990;2022-08-19T11:04:10;56.20;;;38.38;;
5416;SDS011;2731;50.754;12.990;2022-08-19T11:06:38;60.25;;;39.28;;
5416;SDS011;2731;50.754;12.990;2022-08-19T11:09:07;61.65;;;41.72;;
5416;SDS011;2731;50.754;12.990;2022-08-19T11:11:32;66.55;;;42.03;;
5416;SDS011;2731;50.754;12.990;2022-08-19T11:14:04;62.13;;;40.80;;
5416;SDS011;2731;50.754;12.990;2022-08-19T11:16:30;68.70;;;42.80;;
5416;SDS011;2731;50.754;12.990;2022-08-19T11:18:57;65.75;;;39.70;;
5416;SDS011;2731;50.754;12.990;2022-08-19T11:21:30;57.95;;;38.28;;
5416;SDS011;2731;50.754;12.990;2022-08-19T11:23:58;61.95;;;38.67;;
5416;SDS011;2731;50.754;12.990;2022-08-19T11:26:25;62.35;;;39.15;;
5416;SDS011;2731;50.754;12.990;2022-08-19T11:28:51;62.40;;;40.50;;
5416;SDS011;2731;50.754;12.990;2022-08-19T11:31:25;56.60;;;37.75;;
5416;SDS011;2731;50.754;12.990;2022-08-19T11:36:21;55.88;;;38.40;;
5416;SDS011;2731;50.754;12.990;2022-08-19T11:38:47;57.97;;;38.30;;
5416;SDS011;2731;50.754;12.990;2022-08-19T11:41:14;56.95;;;37.33;;
5416;SDS011;2731;50.754;12.990;2022-08-19T11:43:40;51.80;;;35.50;;
5416;SDS011;2731;50.754;12.990;2022-08-19T11:46:09;56.10;;;38.58;;
5416;SDS011;2731;50.754;12.990;2022-08-19T11:48:38;56.05;;;38.65;;
5416;SDS011;2731;50.754;12.990;2022-08-19T11:51:04;54.55;;;37.83;;
5416;SDS011;2731;50.754;12.990;2022-08-19T11:53:33;54.42;;;37.67;;
5416;SDS011;2731;50.754;12.990;2022-08-19T11:55:59;45.40;;;32.90;;
5416;SDS011;2731;50.754;12.990;2022-08-19T11:58:25;44.45;;;32.05;;
5416;SDS011;2731;50.754;12.990;2022-08-19T12:00:50;46.85;;;34.88;;
5416;SDS011;2731;50.754;12.990;2022-08-19T12:03:16;45.45;;;33.78;;
5416;SDS011;2731;50.754;12.990;2022-08-19T12:05:43;53.55;;;37.28;;
5416;SDS011;2731;50.754;12.990;2022-08-19T12:08:09;57.22;;;37.05;;
5416;SDS011;2731;50.754;12.990;2022-08-19T12:10:34;54.38;;;36.83;;
5416;SDS011;2731;50.754;12.990;2022-08-19T12:13:00;61.92;;;39.63;;
5416;SDS011;2731;50.754;12.990;2022-08-19T12:15:26;58.70;;;39.95;;
5416;SDS011;2731;50.754;12.990;2022-08-19T12:17:55;57.78;;;39.80;;
5416;SDS011;2731;50.754;12.990;2022-08-19T12:20:22;62.97;;;40.80;;
5416;SDS011;2731;50.754;12.990;2022-08-19T12:22:48;57.50;;;38.60;;
5416;SDS011;2731;50.754;12.990;2022-08-19T12:25:14;52.80;;;36.60;;
5416;SDS011;2731;50.754;12.990;2022-08-19T12:27:39;54.85;;;37.50;;
5416;SDS011;2731;50.754;12.990;2022-08-19T12:30:05;61.00;;;39.80;;
5416;SDS011;2731;50.754;12.990;2022-08-19T12:32:33;55.65;;;38.10;;
5416;SDS011;2731;50.754;12.990;2022-08-19T12:34:58;50.47;;;37.65;;
5416;SDS011;2731;50.754;12.990;2022-08-19T12:37:23;57.35;;;36.22;;
5416;SDS011;2731;50.754;12.990;2022-08-19T12:39:49;52.00;;;35.97;;
5416;SDS011;2731;50.754;12.990;2022-08-19T12:42:14;51.60;;;35.60;;
5416;SDS011;2731;50.754;12.990;2022-08-19T12:44:41;60.88;;;38.95;;
5416;SDS011;2731;50.754;12.990;2022-08-19T12:47:08;55.42;;;36.13;;
5416;SDS011;2731;50.754;12.990;2022-08-19T12:49:36;57.25;;;38.13;;
5416;SDS011;2731;50.754;12.990;2022-08-19T12:52:07;60.80;;;40.70;;
5416;SDS011;2731;50.754;12.990;2022-08-19T12:54:34;59.22;;;40.72;;
5416;SDS011;2731;50.754;12.990;2022-08-19T12:57:05;52.72;;;38.00;;
5416;SDS011;2731;50.754;12.990;2022-08-19T12:59:32;53.97;;;37.20;;
5416;SDS011;2731;50.754;12.990;2022-08-19T13:02:00;61.88;;;40.22;;
5416;SDS011;2731;50.754;12.990;2022-08-19T13:04:30;57.45;;;40.20;;
5416;SDS011;2731;50.754;12.990;2022-08-19T13:06:56;55.45;;;38.22;;
5416;SDS011;2731;50.754;12.990;2022-08-19T13:09:24;68.60;;;42.92;;
5416;SDS011;2731;50.754;12.990;2022-08-19T13:11:50;65.18;;;42.60;;
5416;SDS011;2731;50.754;12.990;2022-08-19T13:14:15;64.20;;;42.38;;
5416;SDS011;2731;50.754;12.990;2022-08-19T13:16:41;65.15;;;43.92;;
5416;SDS011;2731;50.754;12.990;2022-08-19T13:19:08;71.60;;;45.10;;
5416;SDS011;2731;50.754;12.990;2022-08-19T13:21:38;73.25;;;46.58;;
5416;SDS011;2731;50.754;12.990;2022-08-19T13:24:04;72.97;;;47.60;;
5416;SDS011;2731;50.754;12.990;2022-08-19T13:26:29;67.57;;;45.53;;
5416;SDS011;2731;50.754;12.990;2022-08-19T13:28:56;75.80;;;48.03;;
5416;SDS011;2731;50.754;12.990;2022-08-19T13:31:40;66.22;;;44.40;;
5416;SDS011;2731;50.754;12.990;2022-08-19T13:34:34;76.38;;;47.95;;
5416;SDS011;2731;50.754;12.990;2022-08-19T13:37:00;76.82;;;50.20;;
5416;SDS011;2731;50.754;12.990;2022-08-19T13:39:28;76.47;;;48.95;;
5416;SDS011;2731;50.754;12.990;2022-08-19T13:41:54;76.50;;;48.17;;
5416;SDS011;2731;50.754;12.990;2022-08-19T13:44:19;83.68;;;50.35;;
5416;SDS011;2731;50.754;12.990;2022-08-19T13:46:49;77.32;;;49.35;;
5416;SDS011;2731;50.754;12.990;2022-08-19T13:49:18;78.63;;;51.65;;
5416;SDS011;2731;50.754;12.990;2022-08-19T13:51:43;76.82;;;49.38;;
5416;SDS011;2731;50.754;12.990;2022-08-19T13:54:09;75.10;;;49.38;;
5416;SDS011;2731;50.754;12.990;2022-08-19T13:56:35;79.68;;;48.17;;
5416;SDS011;2731;50.754;12.990;2022-08-19T13:59:05;76.40;;;48.30;;
5416;SDS011;2731;50.754;12.990;2022-08-19T14:01:30;72.28;;;48.55;;
5416;SDS011;2731;50.754;12.990;2022-08-19T14:03:56;75.68;;;47.55;;
5416;SDS011;2731;50.754;12.990;2022-08-19T14:06:25;75.95;;;47.80;;
5416;SDS011;2731;50.754;12.990;2022-08-19T14:08:52;71.60;;;46.65;;
5416;SDS011;2731;50.754;12.990;2022-08-19T14:11:18;74.10;;;47.20;;
5416;SDS011;2731;50.754;12.990;2022-08-19T14:13:44;76.82;;;48.85;;
5416;SDS011;2731;50.754;12.990;2022-08-19T14:16:10;72.03;;;45.25;;
5416;SDS011;2731;50.754;12.990;2022-08-19T14:18:36;74.78;;;47.45;;
5416;SDS011;2731;50.754;12.990;2022-08-19T14:21:03;66.38;;;43.40;;
5416;SDS011;2731;50.754;12.990;2022-08-19T14:23:30;73.45;;;46.65;;
5416;SDS011;2731;50.754;12.990;2022-08-19T14:26:03;68.30;;;44.78;;
5416;SDS011;2731;50.754;12.990;2022-08-19T14:28:33;72.72;;;45.90;;
5416;SDS011;2731;50.754;12.990;2022-08-19T14:30:59;71.85;;;47.45;;
5416;SDS011;2731;50.754;12.990;2022-08-19T14:33:26;69.75;;;45.33;;
5416;SDS011;2731;50.754;12.990;2022-08-19T14:35:52;68.00;;;45.67;;
5416;SDS011;2731;50.754;12.990;2022-08-19T14:38:18;69.43;;;45.53;;
5416;SDS011;2731;50.754;12.990;2022-08-19T14:40:44;72.57;;;47.35;;
5416;SDS011;2731;50.754;12.990;2022-08-19T14:43:12;72.03;;;46.42;;
5416;SDS011;2731;50.754;12.990;2022-08-19T14:45:38;71.15;;;46.17;;
5416;SDS011;2731;50.754;12.990;2022-08-19T14:48:05;74.53;;;47.83;;
5416;SDS011;2731;50.754;12.990;2022-08-19T14:50:34;79.05;;;48.88;;
5416;SDS011;2731;50.754;12.990;2022-08-19T14:53:04;77.30;;;49.08;;
5416;SDS011;2731;50.754;12.990;2022-08-19T14:55:33;77.40;;;48.53;;
5416;SDS011;2731;50.754;12.990;2022-08-19T14:57:59;73.78;;;49.17;;